To NAV CANADA Home Page Login to a new session Search on AWWS site Disclaimer Vers la page française équivalente Tips FAQ What's new on the site To the Forecasts and Observations / NOTAM section To "File a Flight Plan" website Publications and other links Update of the User's profile FIC Telephone Numbers My Weather Data Folder Route Weather Data Regional Weather Data Local Weather Data To the Forecasts and Observations / NOTAM section
Request Generated 04/22/2019 at 12:13:53 UTC . Weather information available at that time is displayed.

METAR/TAF

TORONTO/OSHAWA EXECUTIVE AIRPORT/ON    (show WxCam)

METAR CYOO 221200Z AUTO 02003KT 3SM BR OVC110 05/05 A3026 RMK SLP250=
SPECI CYOO 221146Z AUTO 07002KT 3SM BR FEW005 OVC110 05/05 A3025 RMK SLP247=
SPECI CYOO 221134Z AUTO 01002KT 1SM BR SCT003 OVC110 05/05 A3025 RMK SLP249=
METAR CYOO 221100Z AUTO VRB02KT 0SM FG VV001 04/04 A3024 RMK SLP245=
METAR CYOO 221000Z AUTO 11002KT 1/4SM FG VV001 04/04 A3021 RMK SLP237=

TAF AMD CYOO 220943Z 2209/2220 VRB03KT 2SM BR BKN002 BKN130 TEMPO
2209/2212 6SM BR FEW005 BKN130
BECMG 2212/2214 P6SM NSW SCT100
FM221400 13006KT P6SM SCT100
RMK FCST BASED ON AUTO OBS. NXT FCST BY 221400Z=

TORONTO/BUTTONVILLE MUNICIPAL/ON    

LWIS CYKZ 221200Z AUTO 05004KT 06/06 A3025=
LWIS CYKZ 221100Z AUTO VRB02KT 06/05 A3023=
LWIS CYKZ 221000Z AUTO 00000KT 05/05 A3020=

CYKZ - No TAF is issued for this station

PETERBOROUGH/ON    (show WxCam)

METAR CYPQ 221200Z AUTO VRB02KT 3SM BR OVC002 04/04 A3026 RMK SLP253=
SPECI CYPQ 221146Z AUTO 19002KT 3SM BR OVC002 04/04 A3025 RMK SLP250=
SPECI CYPQ 221144Z AUTO 17002KT 2 1/2SM BR OVC002 04/04 A3025 RMK SLP249=
SPECI CYPQ 221140Z AUTO 17002KT 1 1/2SM BR OVC002 04/04 A3024 RMK SLP248=
METAR CYPQ 221100Z AUTO 29002KT 1/8SM FG VV002 03/03 A3023 RMK SLP245=
METAR CYPQ 221000Z AUTO 00000KT 1/8SM FG VV001 02/02 A3022 RMK SLP240=

TAF CYPQ 220940Z 2210/2222 VRB03KT 3/8SM FG VV001
BECMG 2211/2213 P6SM NSW BKN100
FM221500 VRB03KT P6SM SCT100
BECMG 2215/2217 08006KT
BECMG 2220/2222 36005KT
RMK FCST BASED ON AUTO OBS. NXT FCST BY 221400Z=

TORONTO/BILLY BISHOP TORONTO CITY AIRPORT/ON    (show WxCam)

METAR CYTZ 221200Z AUTO 09003KT 5SM BR OVC100 06/05 A3025 RMK SLP247=
METAR CYTZ 221100Z AUTO VRB02KT 3SM BR BKN110 OVC130 05/05 A3024 RMK SLP243=
SPECI CYTZ 221045Z AUTO 08002KT 3SM BR FEW002 OVC110 05/05 A3024 RMK SLP243=
SPECI CYTZ 221030Z AUTO 07003KT 2SM BR FEW002 SCT006 BKN110 OVC130 05/04 A3023 RMK SLP241=
SPECI CYTZ 221023Z AUTO VRB02KT 2SM BR BKN004 OVC120 04/04 A3023 RMK SLP239=
METAR CYTZ 221000Z AUTO 12003KT 1 1/2SM R26/4000V5000FT/ BR OVC002 04/04 A3022 RMK SLP236=

TAF AMD CYTZ 221007Z 2210/2308 10003KT 1SM BR OVC002 TEMPO 2210/2213
6SM BR SCT003 BKN120
FM221300 08005KT 6SM BR BKN100 TEMPO 2213/2215 21/2SM BR
FM221500 08008KT P6SM FEW015 SCT100
FM221800 11007KT P6SM FEW100
BECMG 2222/2224 VRB03KT
RMK FCST BASED ON AUTO OBS. NXT FCST BY 221400Z=

TORONTO/LESTER B. PEARSON INTL/ON    

METAR CYYZ 221200Z VRB02KT 15SM BKN095 BKN110 08/07 A3024 RMK AC5AC2 BR SLP245=
METAR CYYZ 221100Z 15002KT 15SM OVC100 08/06 A3023 RMK AC8 BR SLP241=
METAR CYYZ 221000Z 09003KT 12SM FEW015 BKN110 07/06 A3020 RMK SF1AC6 SF TR SLP233=

TAF CYYZ 221139Z 2212/2318 VRB03KT P6SM FEW015 BKN100
BECMG 2213/2215 11006KT
FM221500 11006KT P6SM SCT120
FM222000 15007KT P6SM FEW140
BECMG 2301/2303 14003KT
FM231400 12008KT P6SM BKN100 TEMPO 2315/2318 P6SM -SHRA OVC080
PROB30 2315/2318 2SM TSRA BR BKN050CB OVC080
RMK NXT FCST BY 221500Z=
Your time UTC time
Weather data provided by Environment Canada and NAV CANADA